sensor_id;sensor_type;location;lat;lon;timestamp;pressure;altitude;pressure_sealevel;temperature;humidity
55550;BME280;41397;49.972;18.944;2024-01-10T00:02:35;103752.67;;;-8.01;59.68
55550;BME280;41397;49.972;18.944;2024-01-10T00:05:40;103744.58;;;-8.04;59.64
55550;BME280;41397;49.972;18.944;2024-01-10T00:08:41;103738.30;;;-8.06;59.69
55550;BME280;41397;49.972;18.944;2024-01-10T00:11:43;103740.87;;;-8.08;59.88
55550;BME280;41397;49.972;18.944;2024-01-10T00:14:44;103744.51;;;-8.06;60.28
55550;BME280;41397;49.972;18.944;2024-01-10T00:17:49;103742.84;;;-8.04;60.39
55550;BME280;41397;49.972;18.944;2024-01-10T00:20:51;103729.63;;;-8.02;60.72
55550;BME280;41397;49.972;18.944;2024-01-10T00:23:54;103732.41;;;-7.99;61.01
55550;BME280;41397;49.972;18.944;2024-01-10T00:26:56;103722.56;;;-8.01;60.71
55550;BME280;41397;49.972;18.944;2024-01-10T00:29:57;103723.51;;;-7.99;60.54
55550;BME280;41397;49.972;18.944;2024-01-10T00:32:59;103727.87;;;-8.01;60.69
55550;BME280;41397;49.972;18.944;2024-01-10T00:36:00;103719.25;;;-7.96;60.67
55550;BME280;41397;49.972;18.944;2024-01-10T00:39:01;103722.03;;;-7.93;60.62
55550;BME280;41397;49.972;18.944;2024-01-10T00:42:06;103706.99;;;-7.92;60.64
55550;BME280;41397;49.972;18.944;2024-01-10T00:45:07;103715.09;;;-7.89;60.62
55550;BME280;41397;49.972;18.944;2024-01-10T00:48:09;103710.50;;;-7.93;60.78
55550;BME280;41397;49.972;18.944;2024-01-10T00:51:10;103701.48;;;-7.97;61.14
55550;BME280;41397;49.972;18.944;2024-01-10T00:54:14;103695.35;;;-7.96;61.19
55550;BME280;41397;49.972;18.944;2024-01-10T00:57:15;103696.25;;;-7.95;61.44
55550;BME280;41397;49.972;18.944;2024-01-10T01:00:17;103696.33;;;-7.94;61.54
55550;BME280;41397;49.972;18.944;2024-01-10T01:03:18;103704.21;;;-7.95;61.65
55550;BME280;41397;49.972;18.944;2024-01-10T01:06:23;103701.67;;;-7.92;61.84
55550;BME280;41397;49.972;18.944;2024-01-10T01:09:25;103693.79;;;-7.91;62.15
55550;BME280;41397;49.972;18.944;2024-01-10T01:12:26;103694.69;;;-7.90;62.40
55550;BME280;41397;49.972;18.944;2024-01-10T01:15:27;103700.78;;;-7.93;62.72
55550;BME280;41397;49.972;18.944;2024-01-10T01:18:31;103706.75;;;-7.98;62.96
55550;BME280;41397;49.972;18.944;2024-01-10T01:21:33;103709.52;;;-7.95;63.13
55550;BME280;41397;49.972;18.944;2024-01-10T01:24:34;103711.94;;;-8.01;63.16
55550;BME280;41397;49.972;18.944;2024-01-10T01:27:35;103719.01;;;-8.02;62.92
55550;BME280;41397;49.972;18.944;2024-01-10T01:30:40;103717.16;;;-8.03;62.97
55550;BME280;41397;49.972;18.944;2024-01-10T01:33:41;103715.41;;;-8.02;62.84
55550;BME280;41397;49.972;18.944;2024-01-10T01:36:42;103708.42;;;-8.00;62.86
55550;BME280;41397;49.972;18.944;2024-01-10T01:39:44;103712.88;;;-7.99;62.60
55550;BME280;41397;49.972;18.944;2024-01-10T01:42:49;103702.34;;;-7.98;62.42
55550;BME280;41397;49.972;18.944;2024-01-10T01:45:54;103702.34;;;-7.98;62.36
55550;BME280;41397;49.972;18.944;2024-01-10T01:48:56;103698.78;;;-7.98;62.22
55550;BME280;41397;49.972;18.944;2024-01-10T01:51:57;103703.25;;;-7.97;62.02
55550;BME280;41397;49.972;18.944;2024-01-10T01:54:58;103701.11;;;-8.06;61.51
55550;BME280;41397;49.972;18.944;2024-01-10T01:58:00;103702.47;;;-8.16;60.93
55550;BME280;41397;49.972;18.944;2024-01-10T02:01:02;103699.44;;;-8.25;60.89
55550;BME280;41397;49.972;18.944;2024-01-10T02:04:04;103700.09;;;-8.31;60.93
55550;BME280;41397;49.972;18.944;2024-01-10T02:07:06;103708.34;;;-8.45;60.57
55550;BME280;41397;49.972;18.944;2024-01-10T02:10:07;103706.38;;;-8.50;60.89
55550;BME280;41397;49.972;18.944;2024-01-10T02:13:08;103703.67;;;-8.51;60.74
55550;BME280;41397;49.972;18.944;2024-01-10T02:16:11;103701.84;;;-8.52;60.59
55550;BME280;41397;49.972;18.944;2024-01-10T02:19:21;103703.50;;;-8.54;60.28
55550;BME280;41397;49.972;18.944;2024-01-10T02:22:23;103697.25;;;-8.56;60.07
55550;BME280;41397;49.972;18.944;2024-01-10T02:25:24;103702.48;;;-8.58;59.89
55550;BME280;41397;49.972;18.944;2024-01-10T02:28:25;103696.91;;;-8.64;60.24
55550;BME280;41397;49.972;18.944;2024-01-10T02:31:27;103694.18;;;-8.65;60.07
55550;BME280;41397;49.972;18.944;2024-01-10T02:34:29;103688.95;;;-8.64;59.99
55550;BME280;41397;49.972;18.944;2024-01-10T02:37:31;103674.66;;;-8.67;59.70
55550;BME280;41397;49.972;18.944;2024-01-10T02:40:33;103674.37;;;-8.74;59.79
55550;BME280;41397;49.972;18.944;2024-01-10T02:43:34;103678.77;;;-8.74;59.68
55550;BME280;41397;49.972;18.944;2024-01-10T02:46:35;103671.70;;;-8.74;59.90
55550;BME280;41397;49.972;18.944;2024-01-10T02:49:37;103667.95;;;-8.79;59.49
55550;BME280;41397;49.972;18.944;2024-01-10T02:52:38;103681.03;;;-8.83;59.40
55550;BME280;41397;49.972;18.944;2024-01-10T02:55:43;103689.02;;;-8.82;59.57
55550;BME280;41397;49.972;18.944;2024-01-10T02:58:45;103680.17;;;-8.82;59.56
55550;BME280;41397;49.972;18.944;2024-01-10T03:01:46;103680.73;;;-8.89;59.61
55550;BME280;41397;49.972;18.944;2024-01-10T03:04:47;103681.45;;;-8.94;59.43
55550;BME280;41397;49.972;18.944;2024-01-10T03:07:50;103681.23;;;-8.98;59.34
55550;BME280;41397;49.972;18.944;2024-01-10T03:10:51;103674.39;;;-8.93;59.44
55550;BME280;41397;49.972;18.944;2024-01-10T03:14:01;103671.68;;;-8.95;59.01
55550;BME280;41397;49.972;18.944;2024-01-10T03:17:03;103677.54;;;-9.02;58.99
55550;BME280;41397;49.972;18.944;2024-01-10T03:20:05;103669.66;;;-9.00;59.09
55550;BME280;41397;49.972;18.944;2024-01-10T03:23:06;103660.73;;;-9.02;58.83
55550;BME280;41397;49.972;18.944;2024-01-10T03:26:09;103664.20;;;-9.03;58.97
55550;BME280;41397;49.972;18.944;2024-01-10T03:29:11;103662.54;;;-9.01;59.09
55550;BME280;41397;49.972;18.944;2024-01-10T03:32:12;103656.55;;;-8.97;59.08
55550;BME280;41397;49.972;18.944;2024-01-10T03:35:14;103659.12;;;-8.99;58.98
55550;BME280;41397;49.972;18.944;2024-01-10T03:38:15;103652.20;;;-8.95;59.05
55550;BME280;41397;49.972;18.944;2024-01-10T03:41:18;103657.58;;;-8.94;58.79
55550;BME280;41397;49.972;18.944;2024-01-10T03:44:19;103659.24;;;-8.96;59.03
55550;BME280;41397;49.972;18.944;2024-01-10T03:47:20;103654.93;;;-8.94;59.14
55550;BME280;41397;49.972;18.944;2024-01-10T03:50:22;103647.11;;;-8.90;59.28
55550;BME280;41397;49.972;18.944;2024-01-10T03:53:23;103647.23;;;-8.87;59.04
55550;BME280;41397;49.972;18.944;2024-01-10T03:56:25;103651.86;;;-8.83;59.12
55550;BME280;41397;49.972;18.944;2024-01-10T03:59:27;103654.63;;;-8.80;58.97
55550;BME280;41397;49.972;18.944;2024-01-10T04:02:28;103654.55;;;-8.82;58.82
55550;BME280;41397;49.972;18.944;2024-01-10T04:05:29;103650.15;;;-8.81;58.98
55550;BME280;41397;49.972;18.944;2024-01-10T04:08:33;103655.45;;;-8.81;58.87
55550;BME280;41397;49.972;18.944;2024-01-10T04:11:36;103650.15;;;-8.81;58.86
55550;BME280;41397;49.972;18.944;2024-01-10T04:14:37;103650.23;;;-8.80;58.88
55550;BME280;41397;49.972;18.944;2024-01-10T04:17:38;103646.59;;;-8.82;58.77
55550;BME280;41397;49.972;18.944;2024-01-10T04:20:42;103652.88;;;-8.80;58.72
55550;BME280;41397;49.972;18.944;2024-01-10T04:23:44;103645.77;;;-8.81;58.58
55550;BME280;41397;49.972;18.944;2024-01-10T04:26:46;103647.50;;;-8.81;58.57
55550;BME280;41397;49.972;18.944;2024-01-10T04:29:47;103643.81;;;-8.85;58.47
55550;BME280;41397;49.972;18.944;2024-01-10T04:32:51;103640.38;;;-8.82;58.49
55550;BME280;41397;49.972;18.944;2024-01-10T04:35:52;103638.72;;;-8.80;58.57
55550;BME280;41397;49.972;18.944;2024-01-10T04:38:53;103645.13;;;-8.75;58.49
55550;BME280;41397;49.972;18.944;2024-01-10T04:41:55;103630.04;;;-8.76;58.39
55550;BME280;41397;49.972;18.944;2024-01-10T04:45:00;103627.21;;;-8.81;58.21
55550;BME280;41397;49.972;18.944;2024-01-10T04:48:01;103631.66;;;-8.80;58.46
55550;BME280;41397;49.972;18.944;2024-01-10T04:51:02;103640.52;;;-8.79;58.22
55550;BME280;41397;49.972;18.944;2024-01-10T04:54:03;103638.77;;;-8.79;58.41
55550;BME280;41397;49.972;18.944;2024-01-10T04:57:08;103640.65;;;-8.76;58.37
55550;BME280;41397;49.972;18.944;2024-01-10T05:00:10;103645.31;;;-8.71;58.26
55550;BME280;41397;49.972;18.944;2024-01-10T05:03:11;103651.69;;;-8.67;58.32
55550;BME280;41397;49.972;18.944;2024-01-10T05:06:13;103638.30;;;-8.70;58.06
55550;BME280;41397;49.972;18.944;2024-01-10T05:09:17;103645.38;;;-8.69;58.02
55550;BME280;41397;49.972;18.944;2024-01-10T05:12:18;103641.06;;;-8.67;57.83
55550;BME280;41397;49.972;18.944;2024-01-10T05:15:20;103636.46;;;-8.71;57.77
55550;BME280;41397;49.972;18.944;2024-01-10T05:18:21;103635.34;;;-8.76;57.71
55550;BME280;41397;49.972;18.944;2024-01-10T05:21:26;103630.97;;;-8.76;57.72
55550;BME280;41397;49.972;18.944;2024-01-10T05:24:27;103639.11;;;-8.71;57.77
55550;BME280;41397;49.972;18.944;2024-01-10T05:27:28;103637.17;;;-8.75;57.70
55550;BME280;41397;49.972;18.944;2024-01-10T05:30:30;103632.64;;;-8.78;57.81
55550;BME280;41397;49.972;18.944;2024-01-10T05:33:36;103633.46;;;-8.79;57.85
55550;BME280;41397;49.972;18.944;2024-01-10T05:36:37;103636.96;;;-8.80;57.82
55550;BME280;41397;49.972;18.944;2024-01-10T05:39:38;103639.49;;;-8.83;57.61
55550;BME280;41397;49.972;18.944;2024-01-10T05:42:39;103631.58;;;-8.81;57.61
55550;BME280;41397;49.972;18.944;2024-01-10T05:45:43;103631.40;;;-8.86;57.59
55550;BME280;41397;49.972;18.944;2024-01-10T05:48:44;103632.09;;;-8.90;57.63
55550;BME280;41397;49.972;18.944;2024-01-10T05:51:47;103623.66;;;-9.01;57.66
55550;BME280;41397;49.972;18.944;2024-01-10T05:54:48;103627.38;;;-8.97;57.76
55550;BME280;41397;49.972;18.944;2024-01-10T05:57:52;103628.20;;;-8.98;57.79
55550;BME280;41397;49.972;18.944;2024-01-10T06:00:53;103629.90;;;-9.00;57.84
55550;BME280;41397;49.972;18.944;2024-01-10T06:03:55;103629.95;;;-8.99;57.60
55550;BME280;41397;49.972;18.944;2024-01-10T06:07:01;103621.86;;;-9.02;57.64
55550;BME280;41397;49.972;18.944;2024-01-10T06:10:02;103618.99;;;-9.06;57.62
55550;BME280;41397;49.972;18.944;2024-01-10T06:13:04;103635.12;;;-9.02;57.63
55550;BME280;41397;49.972;18.944;2024-01-10T06:16:07;103642.95;;;-9.05;57.44
55550;BME280;41397;49.972;18.944;2024-01-10T06:19:08;103635.96;;;-9.03;57.41
55550;BME280;41397;49.972;18.944;2024-01-10T06:22:11;103640.21;;;-9.06;57.45
55550;BME280;41397;49.972;18.944;2024-01-10T06:25:12;103647.20;;;-9.08;57.43
55550;BME280;41397;49.972;18.944;2024-01-10T06:28:13;103647.90;;;-9.12;57.55
55550;BME280;41397;49.972;18.944;2024-01-10T06:31:14;103649.65;;;-9.13;57.67
55550;BME280;41397;49.972;18.944;2024-01-10T06:34:18;103648.52;;;-9.18;57.52
55550;BME280;41397;49.972;18.944;2024-01-10T06:37:19;103640.08;;;-9.29;57.45
55550;BME280;41397;49.972;18.944;2024-01-10T06:40:20;103655.98;;;-9.29;57.59
55550;BME280;41397;49.972;18.944;2024-01-10T06:43:22;103654.32;;;-9.27;57.73
55550;BME280;41397;49.972;18.944;2024-01-10T06:46:27;103648.89;;;-9.30;57.59
55550;BME280;41397;49.972;18.944;2024-01-10T06:49:28;103651.45;;;-9.31;57.44
55550;BME280;41397;49.972;18.944;2024-01-10T06:52:29;103650.46;;;-9.33;57.28
55550;BME280;41397;49.972;18.944;2024-01-10T06:55:30;103660.12;;;-9.35;57.49
55550;BME280;41397;49.972;18.944;2024-01-10T06:58:35;103661.83;;;-9.36;57.28
55550;BME280;41397;49.972;18.944;2024-01-10T07:01:37;103656.84;;;-9.30;57.42
55550;BME280;41397;49.972;18.944;2024-01-10T07:04:40;103666.86;;;-9.23;57.21
55550;BME280;41397;49.972;18.944;2024-01-10T07:07:41;103673.68;;;-9.28;56.91
55550;BME280;41397;49.972;18.944;2024-01-10T07:10:44;103679.08;;;-9.26;57.00
55550;BME280;41397;49.972;18.944;2024-01-10T07:13:46;103667.30;;;-9.33;56.92
55550;BME280;41397;49.972;18.944;2024-01-10T07:16:47;103673.63;;;-9.29;57.04
55550;BME280;41397;49.972;18.944;2024-01-10T07:19:49;103673.78;;;-9.26;57.06
55550;BME280;41397;49.972;18.944;2024-01-10T07:22:53;103677.27;;;-9.27;56.98
55550;BME280;41397;49.972;18.944;2024-01-10T07:25:56;103684.46;;;-9.25;56.88
55550;BME280;41397;49.972;18.944;2024-01-10T07:28:57;103682.13;;;-9.36;56.79
55550;BME280;41397;49.972;18.944;2024-01-10T07:31:58;103677.54;;;-9.41;57.13
55550;BME280;41397;49.972;18.944;2024-01-10T07:35:01;103683.34;;;-9.30;57.23
55550;BME280;41397;49.972;18.944;2024-01-10T07:38:03;103676.70;;;-9.20;57.28
55550;BME280;41397;49.972;18.944;2024-01-10T07:41:04;103670.63;;;-9.18;57.05
55550;BME280;41397;49.972;18.944;2024-01-10T07:44:06;103664.02;;;-9.08;57.25
55550;BME280;41397;49.972;18.944;2024-01-10T07:47:10;103662.88;;;-8.94;57.40
55550;BME280;41397;49.972;18.944;2024-01-10T07:50:12;103661.09;;;-8.74;57.49
55550;BME280;41397;49.972;18.944;2024-01-10T07:53:15;103666.75;;;-8.66;57.23
55550;BME280;41397;49.972;18.944;2024-01-10T07:56:16;103661.78;;;-8.58;57.49
55550;BME280;41397;49.972;18.944;2024-01-10T07:59:20;103649.79;;;-8.49;57.71
55550;BME280;41397;49.972;18.944;2024-01-10T08:02:21;103647.12;;;-8.28;57.72
55550;BME280;41397;49.972;18.944;2024-01-10T08:05:23;103647.92;;;-8.08;57.70
55550;BME280;41397;49.972;18.944;2024-01-10T08:08:24;103640.13;;;-7.82;57.64
55550;BME280;41397;49.972;18.944;2024-01-10T08:11:28;103637.56;;;-7.56;57.72
55550;BME280;41397;49.972;18.944;2024-01-10T08:14:29;103629.84;;;-7.26;57.60
55550;BME280;41397;49.972;18.944;2024-01-10T08:17:30;103627.80;;;-7.09;57.40
55550;BME280;41397;49.972;18.944;2024-01-10T08:20:31;103623.27;;;-6.88;57.58
55550;BME280;41397;49.972;18.944;2024-01-10T08:23:36;103629.14;;;-6.73;57.47
55550;BME280;41397;49.972;18.944;2024-01-10T08:26:37;103634.08;;;-6.58;56.55
55550;BME280;41397;49.972;18.944;2024-01-10T08:29:39;103630.90;;;-6.48;56.03
55550;BME280;41397;49.972;18.944;2024-01-10T08:32:41;103632.23;;;-6.35;56.26
55550;BME280;41397;49.972;18.944;2024-01-10T08:35:45;103634.45;;;-6.21;56.11
55550;BME280;41397;49.972;18.944;2024-01-10T08:38:46;103630.65;;;-6.01;56.16
55550;BME280;41397;49.972;18.944;2024-01-10T08:41:49;103630.15;;;-5.88;56.06
55550;BME280;41397;49.972;18.944;2024-01-10T08:44:50;103634.25;;;-5.70;55.70
55550;BME280;41397;49.972;18.944;2024-01-10T08:47:54;103628.34;;;-5.60;55.58
55550;BME280;41397;49.972;18.944;2024-01-10T08:50:56;103618.88;;;-5.50;55.25
55550;BME280;41397;49.972;18.944;2024-01-10T08:53:57;103620.27;;;-5.33;55.83
55550;BME280;41397;49.972;18.944;2024-01-10T08:56:59;103623.40;;;-5.18;55.75
55550;BME280;41397;49.972;18.944;2024-01-10T09:00:04;103633.48;;;-5.07;55.22
55550;BME280;41397;49.972;18.944;2024-01-10T09:03:08;103615.95;;;-4.98;55.38
55550;BME280;41397;49.972;18.944;2024-01-10T09:06:10;103619.97;;;-4.80;55.51
55550;BME280;41397;49.972;18.944;2024-01-10T09:09:11;103607.03;;;-4.66;55.28
55550;BME280;41397;49.972;18.944;2024-01-10T09:12:13;103617.95;;;-4.56;55.29
55550;BME280;41397;49.972;18.944;2024-01-10T09:15:15;103606.79;;;-4.41;54.76
55550;BME280;41397;49.972;18.944;2024-01-10T09:18:17;103610.63;;;-4.30;55.05
55550;BME280;41397;49.972;18.944;2024-01-10T09:21:19;103618.02;;;-4.19;55.16
55550;BME280;41397;49.972;18.944;2024-01-10T09:24:21;103610.00;;;-4.19;54.99
55550;BME280;41397;49.972;18.944;2024-01-10T09:27:23;103613.95;;;-4.04;55.42
55550;BME280;41397;49.972;18.944;2024-01-10T09:30:24;103609.57;;;-4.00;54.92
55550;BME280;41397;49.972;18.944;2024-01-10T09:33:25;103609.78;;;-3.91;55.00
55550;BME280;41397;49.972;18.944;2024-01-10T09:36:29;103609.95;;;-3.85;55.23
55550;BME280;41397;49.972;18.944;2024-01-10T09:39:31;103595.72;;;-3.82;55.23
55550;BME280;41397;49.972;18.944;2024-01-10T09:42:33;103593.97;;;-3.82;55.29
55550;BME280;41397;49.972;18.944;2024-01-10T09:45:43;103582.74;;;-3.65;55.76
55550;BME280;41397;49.972;18.944;2024-01-10T09:48:48;103582.20;;;-3.49;56.09
55550;BME280;41397;49.972;18.944;2024-01-10T09:51:50;103586.06;;;-3.35;55.52
55550;BME280;41397;49.972;18.944;2024-01-10T09:54:55;103590.70;;;-3.26;54.76
55550;BME280;41397;49.972;18.944;2024-01-10T09:57:57;103578.37;;;-3.19;55.04
55550;BME280;41397;49.972;18.944;2024-01-10T10:00:58;103572.29;;;-3.10;55.32
55550;BME280;41397;49.972;18.944;2024-01-10T10:04:01;103567.98;;;-3.02;55.04
55550;BME280;41397;49.972;18.944;2024-01-10T10:07:03;103574.45;;;-2.90;54.94
55550;BME280;41397;49.972;18.944;2024-01-10T10:10:05;103568.34;;;-2.82;54.72
55550;BME280;41397;49.972;18.944;2024-01-10T10:13:07;103576.48;;;-2.78;54.58
55550;BME280;41397;49.972;18.944;2024-01-10T10:16:10;103572.91;;;-2.77;54.45
55550;BME280;41397;49.972;18.944;2024-01-10T10:22:25;103572.91;;;-2.77;54.60
55550;BME280;41397;49.972;18.944;2024-01-10T10:25:29;103578.21;;;-2.80;54.40
55550;BME280;41397;49.972;18.944;2024-01-10T10:28:32;103567.59;;;-2.75;55.03
55550;BME280;41397;49.972;18.944;2024-01-10T10:31:33;103567.69;;;-2.69;55.07
55550;BME280;41397;49.972;18.944;2024-01-10T10:34:34;103567.64;;;-2.72;54.65
55550;BME280;41397;49.972;18.944;2024-01-10T10:37:36;103566.80;;;-2.68;55.04
55550;BME280;41397;49.972;18.944;2024-01-10T10:40:37;103565.82;;;-2.73;55.52
55550;BME280;41397;49.972;18.944;2024-01-10T10:43:40;103566.75;;;-2.73;55.59
55550;BME280;41397;49.972;18.944;2024-01-10T10:46:43;103556.97;;;-2.69;55.79
55550;BME280;41397;49.972;18.944;2024-01-10T10:49:51;103552.55;;;-2.67;55.21
55550;BME280;41397;49.972;18.944;2024-01-10T10:52:55;103552.52;;;-2.69;55.56
55550;BME280;41397;49.972;18.944;2024-01-10T10:55:57;103544.53;;;-2.65;55.46
55550;BME280;41397;49.972;18.944;2024-01-10T10:59:00;103541.84;;;-2.65;56.18
55550;BME280;41397;49.972;18.944;2024-01-10T11:02:02;103532.96;;;-2.64;55.97
55550;BME280;41397;49.972;18.944;2024-01-10T11:05:05;103525.87;;;-2.59;56.14
55550;BME280;41397;49.972;18.944;2024-01-10T11:08:22;103531.36;;;-2.52;55.85
55550;BME280;41397;49.972;18.944;2024-01-10T11:11:37;103533.14;;;-2.52;55.96
55550;BME280;41397;49.972;18.944;2024-01-10T11:24:26;103525.15;;;-2.51;56.74
55550;BME280;41397;49.972;18.944;2024-01-10T11:27:27;103518.09;;;-2.46;57.09
55550;BME280;41397;49.972;18.944;2024-01-10T11:30:35;103511.96;;;-2.37;56.80
55550;BME280;41397;49.972;18.944;2024-01-10T11:33:44;103511.16;;;-2.31;56.65
55550;BME280;41397;49.972;18.944;2024-01-10T11:40:05;103504.17;;;-2.18;56.66
55550;BME280;41397;49.972;18.944;2024-01-10T11:43:12;103512.33;;;-2.11;56.67
55550;BME280;41397;49.972;18.944;2024-01-10T11:46:17;103501.69;;;-2.06;56.92
55550;BME280;41397;49.972;18.944;2024-01-10T11:49:21;103496.45;;;-1.98;57.22
55550;BME280;41397;49.972;18.944;2024-01-10T11:52:23;103494.73;;;-1.93;57.09
55550;BME280;41397;49.972;18.944;2024-01-10T12:01:51;103493.12;;;-1.77;57.16
55550;BME280;41397;49.972;18.944;2024-01-10T12:04:53;103492.30;;;-1.73;56.90
55550;BME280;41397;49.972;18.944;2024-01-10T12:07:55;103490.54;;;-1.70;56.97
55550;BME280;41397;49.972;18.944;2024-01-10T12:10:59;103489.63;;;-1.70;57.30
55550;BME280;41397;49.972;18.944;2024-01-10T12:14:02;103495.05;;;-1.69;57.26
55550;BME280;41397;49.972;18.944;2024-01-10T12:17:05;103485.24;;;-1.65;57.32
55550;BME280;41397;49.972;18.944;2024-01-10T12:20:08;103476.33;;;-1.63;57.79
55550;BME280;41397;49.972;18.944;2024-01-10T12:23:09;103479.93;;;-1.61;57.71
55550;BME280;41397;49.972;18.944;2024-01-10T12:26:11;103479.05;;;-1.60;57.81
55550;BME280;41397;49.972;18.944;2024-01-10T12:29:18;103475.46;;;-1.59;58.00
55550;BME280;41397;49.972;18.944;2024-01-10T12:32:25;103488.02;;;-1.58;58.20
55550;BME280;41397;49.972;18.944;2024-01-10T12:35:26;103491.64;;;-1.54;58.38
55550;BME280;41397;49.972;18.944;2024-01-10T12:38:28;103469.27;;;-1.54;58.41
55550;BME280;41397;49.972;18.944;2024-01-10T12:41:29;103471.05;;;-1.55;58.64
55550;BME280;41397;49.972;18.944;2024-01-10T12:44:30;103476.43;;;-1.55;58.64
55550;BME280;41397;49.972;18.944;2024-01-10T12:47:34;103481.82;;;-1.52;58.56
55550;BME280;41397;49.972;18.944;2024-01-10T12:50:36;103478.25;;;-1.52;58.88
55550;BME280;41397;49.972;18.944;2024-01-10T12:53:42;103471.98;;;-1.51;59.06
55550;BME280;41397;49.972;18.944;2024-01-10T12:56:43;103465.72;;;-1.50;59.00
55550;BME280;41397;49.972;18.944;2024-01-10T12:59:46;103460.35;;;-1.52;59.09
55550;BME280;41397;49.972;18.944;2024-01-10T13:02:47;103472.88;;;-1.52;59.32
55550;BME280;41397;49.972;18.944;2024-01-10T13:05:49;103464.80;;;-1.54;59.08
55550;BME280;41397;49.972;18.944;2024-01-10T13:08:51;103468.38;;;-1.53;59.41
55550;BME280;41397;49.972;18.944;2024-01-10T13:11:55;103465.69;;;-1.55;59.48
55550;BME280;41397;49.972;18.944;2024-01-10T13:14:56;103456.68;;;-1.59;59.66
55550;BME280;41397;49.972;18.944;2024-01-10T13:17:57;103454.90;;;-1.60;59.85
55550;BME280;41397;49.972;18.944;2024-01-10T13:20:58;103454.87;;;-1.61;59.94
55550;BME280;41397;49.972;18.944;2024-01-10T13:24:00;103453.99;;;-1.60;59.92
55550;BME280;41397;49.972;18.944;2024-01-10T13:27:01;103459.34;;;-1.62;60.15
55550;BME280;41397;49.972;18.944;2024-01-10T13:30:03;103449.50;;;-1.63;60.18
55550;BME280;41397;49.972;18.944;2024-01-10T13:33:06;103449.46;;;-1.64;60.17
55550;BME280;41397;49.972;18.944;2024-01-10T13:36:08;103441.38;;;-1.69;59.85
55550;BME280;41397;49.972;18.944;2024-01-10T13:39:09;103446.70;;;-1.73;60.05
55550;BME280;41397;49.972;18.944;2024-01-10T13:42:15;103439.47;;;-1.79;60.19
55550;BME280;41397;49.972;18.944;2024-01-10T13:45:17;103438.54;;;-1.81;60.27
55550;BME280;41397;49.972;18.944;2024-01-10T13:48:18;103438.54;;;-1.83;60.26
55550;BME280;41397;49.972;18.944;2024-01-10T13:51:20;103430.42;;;-1.86;60.34
55550;BME280;41397;49.972;18.944;2024-01-10T13:54:22;103430.42;;;-1.87;60.76
55550;BME280;41397;49.972;18.944;2024-01-10T13:57:23;103430.42;;;-1.87;60.95
55550;BME280;41397;49.972;18.944;2024-01-10T14:00:24;103432.18;;;-1.89;60.80
55550;BME280;41397;49.972;18.944;2024-01-10T14:03:26;103429.47;;;-1.92;60.92
55550;BME280;41397;49.972;18.944;2024-01-10T14:06:27;103426.74;;;-1.95;60.77
55550;BME280;41397;49.972;18.944;2024-01-10T14:09:30;103428.50;;;-1.97;60.67
55550;BME280;41397;49.972;18.944;2024-01-10T14:12:32;103426.69;;;-2.02;60.77
55550;BME280;41397;49.972;18.944;2024-01-10T14:15:34;103415.92;;;-2.05;60.59
55550;BME280;41397;49.972;18.944;2024-01-10T14:18:35;103423.00;;;-2.08;60.58
55550;BME280;41397;49.972;18.944;2024-01-10T14:21:36;103409.55;;;-2.11;60.67
55550;BME280;41397;49.972;18.944;2024-01-10T14:24:38;103415.77;;;-2.15;60.89
55550;BME280;41397;49.972;18.944;2024-01-10T14:27:39;103406.77;;;-2.20;61.01
55550;BME280;41397;49.972;18.944;2024-01-10T14:30:41;103405.84;;;-2.22;61.00
55550;BME280;41397;49.972;18.944;2024-01-10T14:33:42;103404.92;;;-2.25;61.02
55550;BME280;41397;49.972;18.944;2024-01-10T14:36:43;103408.45;;;-2.27;61.06
55550;BME280;41397;49.972;18.944;2024-01-10T14:39:48;103410.20;;;-2.31;61.04
55550;BME280;41397;49.972;18.944;2024-01-10T14:42:49;103402.11;;;-2.34;61.00
55550;BME280;41397;49.972;18.944;2024-01-10T14:45:51;103403.84;;;-2.39;61.24
55550;BME280;41397;49.972;18.944;2024-01-10T14:48:52;103413.58;;;-2.46;61.27
55550;BME280;41397;49.972;18.944;2024-01-10T14:51:57;103409.89;;;-2.52;61.19
55550;BME280;41397;49.972;18.944;2024-01-10T14:54:58;103414.36;;;-2.53;60.97
55550;BME280;41397;49.972;18.944;2024-01-10T14:58:00;103408.92;;;-2.57;61.05
55550;BME280;41397;49.972;18.944;2024-01-10T15:01:01;103418.70;;;-2.59;61.08
55550;BME280;41397;49.972;18.944;2024-01-10T15:04:05;103423.12;;;-2.63;61.37
55550;BME280;41397;49.972;18.944;2024-01-10T15:07:07;103419.55;;;-2.63;61.32
55550;BME280;41397;49.972;18.944;2024-01-10T15:10:09;103428.45;;;-2.66;61.42
55550;BME280;41397;49.972;18.944;2024-01-10T15:13:10;103427.47;;;-2.71;61.45
55550;BME280;41397;49.972;18.944;2024-01-10T15:16:14;103430.99;;;-2.75;61.69
55550;BME280;41397;49.972;18.944;2024-01-10T15:19:15;103424.70;;;-2.77;61.96
55550;BME280;41397;49.972;18.944;2024-01-10T15:22:16;103417.47;;;-2.83;61.97
55550;BME280;41397;49.972;18.944;2024-01-10T15:25:18;103410.24;;;-2.87;62.09
55550;BME280;41397;49.972;18.944;2024-01-10T15:28:22;103405.69;;;-2.93;62.22
55550;BME280;41397;49.972;18.944;2024-01-10T15:31:25;103408.42;;;-2.91;62.31
55550;BME280;41397;49.972;18.944;2024-01-10T15:34:29;103409.25;;;-2.94;62.36
55550;BME280;41397;49.972;18.944;2024-01-10T15:37:30;103421.72;;;-2.96;62.23
55550;BME280;41397;49.972;18.944;2024-01-10T15:40:32;103415.41;;;-2.98;62.31
55550;BME280;41397;49.972;18.944;2024-01-10T15:43:33;103402.97;;;-2.97;62.34
55550;BME280;41397;49.972;18.944;2024-01-10T15:46:35;103411.84;;;-3.00;62.35
55550;BME280;41397;49.972;18.944;2024-01-10T15:49:37;103401.99;;;-3.01;62.51
55550;BME280;41397;49.972;18.944;2024-01-10T15:52:40;103399.30;;;-3.02;62.70
55550;BME280;41397;49.972;18.944;2024-01-10T15:55:41;103398.38;;;-3.04;62.93
55550;BME280;41397;49.972;18.944;2024-01-10T15:58:43;103404.58;;;-3.07;62.85
55550;BME280;41397;49.972;18.944;2024-01-10T16:01:44;103407.20;;;-3.08;63.03
55550;BME280;41397;49.972;18.944;2024-01-10T16:04:48;103402.70;;;-3.13;63.37